Time;durP1;ratioP1;P1;durP2;ratioP2;P2;SDS_P1;SDS_P2;PMS_P1;PMS_P2;Temp;Humidity;BMP_temperature;BMP_pressure;BME280_temperature;BME280_humidity;BME280_pressure;Samples;Min_cycle;Max_cycle;Signal;HPM_P1;HPM_P2
2022/02/16 00:00:11;;;;;;;7.13;3.50;;;4.70;99.90;;;;;;5035096;28;20053;-87
2022/02/16 00:02:39;;;;;;;4.45;2.78;;;4.70;99.90;;;;;;5034948;28;20057;-85
2022/02/16 00:05:08;;;;;;;4.15;2.47;;;4.70;99.90;;;;;;5017541;28;20409;-87
2022/02/16 00:07:37;;;;;;;3.72;2.80;;;4.70;99.90;;;;;;5035071;28;20549;-87
2022/02/16 00:10:04;;;;;;;8.25;2.90;;;4.80;99.90;;;;;;5017843;28;20081;-86
2022/02/16 00:12:30;;;;;;;4.03;3.03;;;4.80;99.90;;;;;;5017303;28;20080;-88
2022/02/16 00:14:57;;;;;;;4.65;2.40;;;4.80;99.90;;;;;;5017482;28;20084;-86
2022/02/16 00:17:24;;;;;;;4.15;2.55;;;4.80;99.90;;;;;;5016601;28;20049;-86
2022/02/16 00:19:51;;;;;;;3.25;2.65;;;4.80;99.90;;;;;;5017848;28;20053;-90
2022/02/16 00:22:18;;;;;;;3.70;2.63;;;4.80;99.90;;;;;;5034943;28;20049;-87
2022/02/16 00:24:45;;;;;;;2.53;2.33;;;4.80;99.90;;;;;;5017074;28;20049;-86
2022/02/16 00:27:11;;;;;;;3.08;2.78;;;4.80;99.90;;;;;;5015686;28;20041;-87
2022/02/16 00:29:38;;;;;;;2.78;2.53;;;4.70;99.90;;;;;;5034774;28;20462;-87
2022/02/16 00:32:05;;;;;;;3.92;2.53;;;4.70;99.90;;;;;;5017501;28;20046;-87
2022/02/16 00:34:32;;;;;;;3.95;2.40;;;4.80;99.90;;;;;;5035476;28;20053;-86
2022/02/16 00:36:58;;;;;;;4.03;2.67;;;4.80;99.90;;;;;;5017237;28;20046;-87
2022/02/16 00:39:25;;;;;;;5.38;2.63;;;4.80;99.90;;;;;;5016806;28;20049;-87
2022/02/16 00:41:52;;;;;;;5.57;2.78;;;4.80;99.90;;;;;;5017350;28;20079;-92
2022/02/16 00:44:19;;;;;;;7.93;2.53;;;4.70;99.90;;;;;;5016994;28;20487;-86
2022/02/16 00:46:46;;;;;;;6.00;2.53;;;4.70;99.90;;;;;;5017285;28;20055;-89
2022/02/16 00:49:13;;;;;;;5.15;2.65;;;4.60;99.90;;;;;;5016054;28;20052;-88
2022/02/16 00:51:39;;;;;;;2.60;2.40;;;4.60;99.90;;;;;;5016992;28;20125;-87
2022/02/16 00:54:06;;;;;;;6.45;3.00;;;4.60;99.90;;;;;;5016738;28;20080;-86
2022/02/16 00:56:33;;;;;;;3.67;2.38;;;4.50;99.90;;;;;;5016728;28;20045;-89
2022/02/16 00:58:59;;;;;;;3.67;2.45;;;4.50;99.90;;;;;;5016833;28;20055;-87
2022/02/16 01:01:27;;;;;;;3.13;2.38;;;4.40;99.90;;;;;;5017056;28;20049;-88
2022/02/16 01:03:54;;;;;;;4.55;2.72;;;4.30;99.90;;;;;;5016963;28;20481;-87
2022/02/16 01:06:21;;;;;;;3.88;2.50;;;4.40;99.90;;;;;;5016976;28;20498;-87
2022/02/16 01:08:48;;;;;;;4.75;2.80;;;4.30;99.90;;;;;;5016370;28;20045;-87
2022/02/16 01:11:14;;;;;;;5.55;2.80;;;4.30;99.90;;;;;;5016589;28;20045;-86
2022/02/16 01:13:41;;;;;;;5.20;2.58;;;4.20;99.90;;;;;;5016247;28;20063;-86
2022/02/16 01:16:08;;;;;;;4.72;2.60;;;4.10;99.90;;;;;;5016348;28;20053;-87
2022/02/16 01:18:35;;;;;;;3.03;2.78;;;4.10;99.90;;;;;;5031567;28;20511;-89
2022/02/16 01:21:02;;;;;;;3.55;2.60;;;4.10;99.90;;;;;;5052596;28;20044;-86
2022/02/16 01:23:29;;;;;;;3.05;2.30;;;4.00;99.90;;;;;;5053235;28;20049;-86
2022/02/16 01:25:57;;;;;;;2.95;2.30;;;4.00;99.90;;;;;;5053145;28;20060;-90
2022/02/16 01:28:24;;;;;;;3.92;2.10;;;4.00;99.90;;;;;;5052406;28;20128;-87
2022/02/16 01:30:51;;;;;;;2.30;2.10;;;4.10;99.90;;;;;;5052384;28;20045;-86
2022/02/16 01:33:18;;;;;;;4.65;2.13;;;4.10;99.90;;;;;;5052053;28;20047;-87
2022/02/16 01:35:45;;;;;;;5.57;2.10;;;4.10;99.90;;;;;;5052333;28;20139;-86
2022/02/16 01:38:11;;;;;;;2.78;2.05;;;4.10;99.90;;;;;;5053039;28;20047;-85
2022/02/16 01:40:38;;;;;;;2.15;1.95;;;4.10;99.90;;;;;;5052775;28;20053;-87
2022/02/16 01:43:05;;;;;;;5.03;2.10;;;4.10;99.90;;;;;;5052427;28;20045;-88
2022/02/16 01:45:34;;;;;;;5.22;2.15;;;4.10;99.90;;;;;;5051825;28;20059;-86
2022/02/16 01:48:03;;;;;;;3.30;2.10;;;4.20;99.90;;;;;;5052962;28;20041;-88
2022/02/16 01:50:30;;;;;;;3.72;2.20;;;4.20;99.90;;;;;;5052901;28;20048;-86
2022/02/16 01:52:56;;;;;;;3.38;2.40;;;4.20;99.90;;;;;;5053113;28;20049;-87
2022/02/16 01:55:23;;;;;;;2.88;1.85;;;4.30;99.90;;;;;;5052987;28;20087;-89
2022/02/16 01:57:51;;;;;;;4.95;2.45;;;4.30;99.90;;;;;;5053607;28;20051;-89
2022/02/16 02:00:18;;;;;;;2.55;1.80;;;4.30;99.90;;;;;;5052026;28;20059;-86
2022/02/16 02:02:45;;;;;;;4.05;2.05;;;4.20;99.90;;;;;;5053320;28;20052;-88
2022/02/16 02:05:13;;;;;;;3.55;2.15;;;4.20;99.90;;;;;;5052773;28;20049;-87
2022/02/16 02:07:40;;;;;;;3.35;2.08;;;4.10;99.90;;;;;;5052000;28;20457;-89
2022/02/16 02:10:09;;;;;;;3.95;2.40;;;4.20;99.90;;;;;;5053170;28;20045;-86
2022/02/16 02:12:52;;;;;;;7.32;2.10;;;4.10;99.90;;;;;;5052138;28;20143;-86
2022/02/16 02:15:23;;;;;;;4.35;1.88;;;4.10;99.90;;;;;;5051716;28;20055;-88
2022/02/16 02:17:50;;;;;;;4.63;2.40;;;4.10;99.90;;;;;;5049603;28;20068;-88
2022/02/16 02:20:22;;;;;;;1.77;1.67;;;4.00;99.90;;;;;;5015379;28;20048;-87
2022/02/16 02:22:51;;;;;;;2.50;1.90;;;4.00;99.90;;;;;;5032379;28;20056;-85
2022/02/16 02:25:18;;;;;;;2.38;1.92;;;4.00;99.90;;;;;;5015584;28;20081;-85
2022/02/16 02:27:45;;;;;;;1.90;1.80;;;3.90;99.90;;;;;;5015413;28;20056;-86
2022/02/16 02:30:13;;;;;;;2.33;2.03;;;3.90;99.90;;;;;;5032473;28;20053;-86
2022/02/16 02:32:41;;;;;;;1.95;1.65;;;3.90;99.90;;;;;;5015090;28;20056;-85
2022/02/16 02:35:09;;;;;;;2.03;1.92;;;3.80;99.90;;;;;;5015228;28;20069;-87
2022/02/16 02:37:40;;;;;;;1.85;1.73;;;3.80;99.90;;;;;;5015420;28;20119;-86
2022/02/16 02:40:09;;;;;;;2.45;1.50;;;3.80;99.90;;;;;;5015745;28;20056;-87
2022/02/16 02:42:39;;;;;;;1.40;1.25;;;3.80;99.90;;;;;;5019433;28;20079;-86
2022/02/16 02:45:07;;;;;;;1.80;1.55;;;3.80;99.90;;;;;;5036625;28;20060;-86
2022/02/16 02:47:34;;;;;;;1.63;1.52;;;3.70;99.90;;;;;;5019274;28;20052;-86
2022/02/16 02:50:03;;;;;;;1.70;1.25;;;3.70;99.90;;;;;;5036694;28;20118;-85
2022/02/16 02:52:31;;;;;;;1.42;1.33;;;3.70;99.90;;;;;;5018717;28;20073;-87
2022/02/16 02:54:58;;;;;;;1.50;1.40;;;3.60;99.90;;;;;;5018424;28;20091;-87
2022/02/16 02:57:25;;;;;;;1.67;1.58;;;3.70;99.90;;;;;;5018828;28;20059;-86
2022/02/16 02:59:52;;;;;;;1.05;1.05;;;3.60;99.90;;;;;;5019042;28;20140;-86
2022/02/16 03:02:19;;;;;;;1.17;1.17;;;3.60;99.90;;;;;;5021346;28;20045;-86
2022/02/16 03:04:46;;;;;;;1.15;1.05;;;3.60;99.90;;;;;;5019288;28;20456;-87
2022/02/16 03:07:12;;;;;;;2.70;1.05;;;3.60;99.90;;;;;;5037605;28;20056;-88
2022/02/16 03:09:41;;;;;;;1.38;1.20;;;3.60;99.90;;;;;;5036182;28;20107;-87
2022/02/16 03:12:08;;;;;;;1.25;1.15;;;3.60;99.90;;;;;;5018669;28;20132;-88
2022/02/16 03:14:35;;;;;;;0.90;0.90;;;3.60;99.90;;;;;;5018321;28;20148;-86
2022/02/16 03:17:03;;;;;;;0.80;0.80;;;3.50;99.90;;;;;;5018807;28;20041;-89
2022/02/16 03:19:30;;;;;;;1.95;1.10;;;3.50;99.90;;;;;;5035896;28;20061;-88
2022/02/16 03:21:57;;;;;;;1.73;0.90;;;3.50;99.90;;;;;;5018657;28;20541;-87
2022/02/16 03:24:24;;;;;;;1.38;0.88;;;3.50;99.90;;;;;;5018415;28;20060;-88
2022/02/16 03:26:51;;;;;;;0.70;0.70;;;3.50;99.90;;;;;;5018713;28;20399;-87
2022/02/16 03:29:18;;;;;;;0.95;0.80;;;3.50;99.90;;;;;;5018635;28;20080;-87
2022/02/16 03:31:46;;;;;;;0.82;0.82;;;3.50;99.90;;;;;;5018288;28;20616;-87
2022/02/16 03:34:14;;;;;;;0.75;0.75;;;3.50;99.90;;;;;;5018105;28;20045;-87
2022/02/16 03:36:41;;;;;;;0.90;0.90;;;3.50;99.90;;;;;;5035598;28;20049;-87
2022/02/16 03:39:08;;;;;;;1.00;0.90;;;3.50;99.90;;;;;;5035434;28;20049;-87
2022/02/16 03:41:35;;;;;;;1.45;0.68;;;3.40;99.90;;;;;;5035405;28;20049;-88
2022/02/16 03:44:03;;;;;;;0.55;0.55;;;3.50;99.90;;;;;;5018021;28;20148;-86
2022/02/16 03:46:30;;;;;;;0.73;0.73;;;3.50;99.90;;;;;;5035159;28;20084;-87
2022/02/16 03:48:57;;;;;;;0.60;0.60;;;3.50;99.90;;;;;;5018028;28;20124;-86
2022/02/16 03:51:24;;;;;;;0.90;0.90;;;3.50;99.90;;;;;;5034236;28;20140;-86
2022/02/16 03:53:51;;;;;;;1.33;0.75;;;3.50;99.90;;;;;;5034620;28;20080;-89
2022/02/16 03:56:17;;;;;;;1.05;0.70;;;3.50;99.90;;;;;;5017500;28;20053;-86
2022/02/16 03:58:44;;;;;;;0.70;0.70;;;3.40;99.90;;;;;;5017590;28;20471;-86
2022/02/16 04:01:11;;;;;;;0.80;0.80;;;3.40;99.90;;;;;;5017818;28;20132;-87
2022/02/16 04:03:37;;;;;;;0.60;0.60;;;3.40;99.90;;;;;;5017493;28;20077;-86
2022/02/16 04:06:05;;;;;;;0.60;0.60;;;3.40;99.90;;;;;;5017054;28;20516;-85
2022/02/16 04:08:32;;;;;;;0.80;0.80;;;3.40;99.90;;;;;;5017241;28;20136;-85
2022/02/16 04:10:58;;;;;;;0.55;0.55;;;3.40;99.90;;;;;;5017398;28;20051;-87
2022/02/16 04:13:25;;;;;;;0.50;0.50;;;3.30;99.90;;;;;;5035154;28;20052;-85
2022/02/16 04:15:52;;;;;;;0.82;0.82;;;3.30;99.90;;;;;;5037031;28;20405;-86
2022/02/16 04:18:19;;;;;;;0.68;0.55;;;3.30;99.90;;;;;;5018864;28;20049;-85
2022/02/16 04:20:46;;;;;;;0.60;0.60;;;3.30;99.90;;;;;;5034168;28;20057;-85
2022/02/16 04:23:13;;;;;;;0.60;0.60;;;3.30;99.90;;;;;;5034239;28;20409;-87
2022/02/16 04:25:41;;;;;;;0.70;0.70;;;3.30;99.90;;;;;;5034156;28;20056;-84
2022/02/16 04:28:09;;;;;;;0.60;0.60;;;3.30;99.90;;;;;;5016636;28;20085;-85
2022/02/16 04:30:36;;;;;;;2.28;1.02;;;3.30;99.90;;;;;;5018612;28;20049;-84
2022/02/16 04:33:02;;;;;;;1.05;0.70;;;3.20;99.90;;;;;;5036832;28;20049;-85
2022/02/16 04:35:29;;;;;;;1.38;0.90;;;3.20;99.90;;;;;;5018266;28;20049;-85
2022/02/16 04:37:56;;;;;;;0.73;0.73;;;3.20;99.90;;;;;;5016727;28;20061;-85
2022/02/16 04:40:23;;;;;;;0.80;0.80;;;3.30;99.90;;;;;;5016593;28;20049;-86
2022/02/16 04:42:49;;;;;;;0.90;0.90;;;3.30;99.90;;;;;;5016724;28;20081;-84
2022/02/16 04:45:16;;;;;;;0.95;0.95;;;3.30;99.90;;;;;;5033258;28;20089;-85
2022/02/16 04:47:44;;;;;;;1.15;0.85;;;3.30;99.90;;;;;;5016364;28;20128;-85
2022/02/16 04:50:11;;;;;;;0.80;0.80;;;3.40;99.90;;;;;;5016392;28;20497;-85
2022/02/16 04:52:38;;;;;;;0.88;0.88;;;3.40;99.90;;;;;;5016422;28;20063;-85
2022/02/16 04:55:09;;;;;;;1.02;0.65;;;3.40;99.90;;;;;;5033365;28;20140;-85
2022/02/16 04:57:37;;;;;;;0.90;0.90;;;3.40;99.90;;;;;;5016092;28;20068;-87
2022/02/16 05:00:06;;;;;;;0.77;0.70;;;3.40;99.90;;;;;;5016283;28;20092;-84
2022/02/16 05:02:33;;;;;;;0.80;0.80;;;3.40;99.90;;;;;;5016031;28;20049;-85
2022/02/16 05:05:00;;;;;;;1.02;0.75;;;3.40;99.90;;;;;;5033205;28;20045;-85
2022/02/16 05:07:27;;;;;;;0.90;0.90;;;3.50;99.90;;;;;;5016083;28;20146;-86
2022/02/16 05:09:53;;;;;;;0.60;0.60;;;3.50;99.90;;;;;;5016108;28;20179;-87
2022/02/16 05:12:20;;;;;;;1.02;0.60;;;3.50;99.90;;;;;;5019755;28;20042;-88
2022/02/16 05:14:47;;;;;;;1.88;0.80;;;3.50;99.90;;;;;;5040480;28;20092;-84
2022/02/16 05:17:14;;;;;;;1.98;0.75;;;3.60;99.90;;;;;;5018144;28;20049;-86
2022/02/16 05:19:41;;;;;;;0.82;0.82;;;3.60;99.90;;;;;;5016351;28;20144;-86
2022/02/16 05:22:08;;;;;;;1.88;1.50;;;3.60;99.90;;;;;;5033634;28;20063;-86
2022/02/16 05:24:35;;;;;;;0.60;0.60;;;3.60;99.90;;;;;;5034208;28;20045;-89
2022/02/16 05:27:02;;;;;;;0.68;0.68;;;3.70;99.90;;;;;;5016167;28;20056;-85
2022/02/16 05:29:29;;;;;;;0.63;0.63;;;3.70;99.90;;;;;;5016708;28;20133;-86
2022/02/16 05:31:56;;;;;;;1.00;1.00;;;3.70;99.90;;;;;;5018301;28;20059;-87
2022/02/16 05:34:23;;;;;;;0.70;0.70;;;3.60;99.90;;;;;;5015719;28;20132;-87
2022/02/16 05:36:52;;;;;;;0.40;0.40;;;3.60;99.90;;;;;;5016336;28;20073;-86
2022/02/16 05:39:19;;;;;;;0.95;0.80;;;3.60;99.90;;;;;;5015575;28;20053;-85
2022/02/16 05:41:46;;;;;;;1.55;0.95;;;3.60;99.90;;;;;;5033699;28;20057;-85
2022/02/16 05:44:14;;;;;;;0.60;0.60;;;3.60;99.90;;;;;;5015229;28;20052;-85
2022/02/16 05:46:41;;;;;;;0.50;0.50;;;3.60;99.90;;;;;;5015552;28;20391;-87
2022/02/16 05:49:08;;;;;;;0.65;0.40;;;3.60;99.90;;;;;;5032893;28;20082;-85
2022/02/16 05:51:35;;;;;;;1.20;0.85;;;3.60;99.90;;;;;;5015256;28;20140;-85
2022/02/16 05:54:03;;;;;;;0.60;0.60;;;3.60;99.90;;;;;;5032809;28;20099;-86
2022/02/16 05:56:32;;;;;;;0.50;0.50;;;3.60;99.90;;;;;;5032867;28;20057;-85
2022/02/16 05:58:59;;;;;;;1.15;0.43;;;3.60;99.90;;;;;;5015244;28;20049;-86
2022/02/16 06:01:25;;;;;;;0.70;0.70;;;3.60;99.90;;;;;;5015485;28;20059;-85
2022/02/16 06:03:52;;;;;;;0.60;0.60;;;3.60;99.90;;;;;;5015345;28;20059;-84
2022/02/16 06:06:19;;;;;;;0.80;0.80;;;3.60;99.90;;;;;;5014926;28;20081;-84
2022/02/16 06:08:47;;;;;;;0.50;0.50;;;3.60;99.90;;;;;;5015126;28;20049;-85
2022/02/16 06:11:13;;;;;;;0.52;0.52;;;3.60;99.90;;;;;;5015375;28;20498;-85
2022/02/16 06:13:40;;;;;;;0.52;0.52;;;3.60;99.90;;;;;;5015267;28;20069;-84
2022/02/16 06:16:07;;;;;;;1.38;0.75;;;3.60;99.90;;;;;;5017581;28;20053;-87
2022/02/16 06:18:34;;;;;;;1.15;0.75;;;3.70;99.90;;;;;;5036457;28;20049;-85
2022/02/16 06:21:01;;;;;;;0.98;0.88;;;3.60;99.90;;;;;;5036737;28;20053;-86
2022/02/16 06:23:28;;;;;;;0.50;0.50;;;3.60;99.90;;;;;;5036600;28;20572;-85
2022/02/16 06:25:54;;;;;;;3.22;1.10;;;3.70;99.90;;;;;;5036247;28;20045;-85
2022/02/16 06:28:21;;;;;;;1.23;0.90;;;3.70;99.90;;;;;;5036440;28;20405;-85
2022/02/16 06:30:51;;;;;;;0.60;0.60;;;3.70;99.90;;;;;;5036824;28;20049;-86
2022/02/16 06:33:18;;;;;;;3.15;2.70;;;3.70;99.90;;;;;;5036355;28;20076;-85
2022/02/16 06:35:45;;;;;;;0.73;0.50;;;3.70;99.90;;;;;;5020079;28;20132;-87
2022/02/16 06:38:13;;;;;;;0.60;0.60;;;3.80;99.90;;;;;;5018730;28;20048;-85
2022/02/16 06:40:39;;;;;;;1.10;0.85;;;3.80;99.90;;;;;;5036209;28;20140;-85
2022/02/16 06:43:06;;;;;;;1.88;1.35;;;3.80;99.90;;;;;;5019062;28;20092;-86
2022/02/16 06:45:33;;;;;;;0.60;0.60;;;3.80;99.90;;;;;;5021779;28;20053;-86
2022/02/16 06:48:00;;;;;;;2.28;1.20;;;3.80;99.90;;;;;;5036459;28;20584;-85
2022/02/16 06:50:27;;;;;;;0.70;0.70;;;3.90;99.90;;;;;;5019481;28;20064;-87
2022/02/16 06:52:53;;;;;;;0.52;0.43;;;3.90;99.90;;;;;;5037066;28;20132;-85
2022/02/16 06:55:20;;;;;;;1.65;0.77;;;4.00;99.90;;;;;;5018724;28;20115;-85
2022/02/16 06:57:47;;;;;;;2.80;0.57;;;4.00;99.90;;;;;;5018020;28;20144;-85
2022/02/16 07:00:15;;;;;;;0.80;0.60;;;4.00;99.90;;;;;;5018674;28;20054;-85
2022/02/16 07:02:46;;;;;;;0.40;0.40;;;4.10;99.90;;;;;;5036146;28;20055;-85
2022/02/16 07:05:13;;;;;;;1.45;0.60;;;4.00;99.90;;;;;;5018642;28;20128;-86
2022/02/16 07:07:40;;;;;;;0.40;0.40;;;4.10;99.90;;;;;;5036151;28;20134;-85
2022/02/16 07:10:08;;;;;;;0.63;0.60;;;4.10;99.90;;;;;;5019216;28;20046;-86
2022/02/16 07:12:38;;;;;;;1.00;0.90;;;4.20;99.90;;;;;;5018543;28;20132;-85
2022/02/16 07:15:11;;;;;;;1.65;0.70;;;4.20;99.90;;;;;;5016628;28;20042;-85
2022/02/16 07:17:39;;;;;;;0.88;0.88;;;4.30;99.90;;;;;;5014422;28;20142;-83
2022/02/16 07:20:11;;;;;;;1.95;0.70;;;4.30;99.90;;;;;;5015588;28;20121;-85
2022/02/16 07:22:43;;;;;;;1.30;0.80;;;4.30;99.90;;;;;;5016036;28;20046;-86
2022/02/16 07:25:10;;;;;;;0.57;0.57;;;4.30;99.90;;;;;;5015904;28;20085;-85
2022/02/16 07:27:57;;;;;;;0.70;0.45;;;4.40;99.90;;;;;;5014828;28;20521;-85
2022/02/16 07:30:24;;;;;;;0.75;0.50;;;4.40;99.90;;;;;;5015218;28;20133;-85
2022/02/16 07:32:50;;;;;;;1.23;1.00;;;4.40;99.90;;;;;;5015608;28;20042;-85
2022/02/16 07:35:17;;;;;;;2.40;0.70;;;4.40;99.90;;;;;;5014635;28;20076;-85
2022/02/16 07:37:44;;;;;;;0.82;0.80;;;4.40;99.90;;;;;;5014844;28;20056;-86
2022/02/16 07:40:11;;;;;;;1.13;0.60;;;4.40;99.90;;;;;;5014864;28;20052;-88
2022/02/16 07:42:38;;;;;;;0.90;0.57;;;4.40;99.90;;;;;;5015209;28;20414;-86
2022/02/16 07:45:06;;;;;;;0.73;0.70;;;4.50;99.90;;;;;;5014433;28;20060;-85
2022/02/16 07:47:34;;;;;;;0.30;0.30;;;4.50;99.90;;;;;;5013942;28;20050;-84
2022/02/16 07:50:02;;;;;;;0.30;0.30;;;4.60;99.90;;;;;;5015673;28;20125;-86
2022/02/16 07:52:33;;;;;;;1.75;0.30;;;4.60;99.90;;;;;;5016764;28;20471;-86
2022/02/16 07:54:59;;;;;;;0.43;0.40;;;4.60;99.90;;;;;;4998280;28;20050;-85
2022/02/16 07:57:27;;;;;;;0.40;0.20;;;4.60;99.90;;;;;;5015204;28;20654;-84
2022/02/16 07:59:55;;;;;;;0.30;0.30;;;4.70;99.90;;;;;;5019472;28;20050;-83
2022/02/16 08:02:22;;;;;;;0.43;0.43;;;4.70;99.90;;;;;;5016091;28;20072;-84
2022/02/16 08:04:48;;;;;;;0.40;0.40;;;4.70;99.90;;;;;;5015636;28;20090;-85
2022/02/16 08:07:15;;;;;;;1.05;0.70;;;4.80;99.90;;;;;;4998928;28;20054;-86
2022/02/16 08:09:42;;;;;;;0.75;0.30;;;4.80;99.90;;;;;;5017019;28;20052;-89
2022/02/16 08:12:11;;;;;;;0.30;0.30;;;4.90;99.90;;;;;;5015442;28;20061;-85
2022/02/16 08:14:38;;;;;;;0.43;0.40;;;4.90;99.90;;;;;;5015229;28;20133;-84
2022/02/16 08:17:05;;;;;;;1.08;0.30;;;4.90;99.90;;;;;;4999248;28;20081;-89
2022/02/16 08:19:32;;;;;;;0.50;0.50;;;4.90;99.90;;;;;;5014782;28;20057;-87
2022/02/16 08:21:59;;;;;;;0.40;0.40;;;4.90;99.90;;;;;;5016753;28;20417;-87
2022/02/16 08:24:27;;;;;;;0.50;0.50;;;5.00;99.90;;;;;;5014881;28;20058;-87
2022/02/16 08:26:54;;;;;;;0.30;0.30;;;4.90;99.90;;;;;;5015435;28;20549;-87
2022/02/16 08:29:24;;;;;;;0.60;0.60;;;4.90;99.90;;;;;;5014896;28;20046;-86
2022/02/16 08:31:54;;;;;;;;;;;4.90;99.90;;;;;;5014403;28;20050;-89
2022/02/16 08:34:21;;;;;;;4.50;4.00;;;4.90;99.90;;;;;;5016635;28;19975;-86
2022/02/16 08:36:55;;;;;;;1.67;1.20;;;5.00;99.90;;;;;;5014553;28;20137;-87
2022/02/16 08:39:26;;;;;;;3.80;3.42;;;5.00;99.90;;;;;;4996842;28;20108;-86
2022/02/16 08:41:54;;;;;;;2.92;2.00;;;5.10;99.90;;;;;;5014859;28;20546;-87
2022/02/16 08:44:21;;;;;;;0.63;0.60;;;5.10;99.90;;;;;;5013773;28;20064;-88
2022/02/16 08:46:48;;;;;;;1.00;0.52;;;5.10;99.90;;;;;;5014752;28;20422;-85
2022/02/16 08:49:15;;;;;;;0.98;0.70;;;5.20;99.90;;;;;;4997292;28;20049;-86
2022/02/16 08:51:42;;;;;;;1.55;0.65;;;5.20;99.90;;;;;;5013781;28;20173;-86
2022/02/16 08:54:08;;;;;;;2.08;0.90;;;5.20;99.90;;;;;;5013920;28;20056;-87
2022/02/16 08:56:35;;;;;;;0.73;0.60;;;5.20;99.90;;;;;;5016075;28;20129;-87
2022/02/16 08:59:03;;;;;;;0.80;0.43;;;5.30;99.90;;;;;;5013749;28;20078;-86
2022/02/16 09:01:31;;;;;;;0.75;0.63;;;5.30;99.90;;;;;;5012944;28;20167;-86
2022/02/16 09:04:03;;;;;;;0.50;0.43;;;5.40;99.90;;;;;;5033297;28;20057;-87
2022/02/16 09:06:30;;;;;;;0.52;0.52;;;5.40;99.90;;;;;;5018564;28;20051;-86
2022/02/16 09:08:57;;;;;;;2.17;1.90;;;5.40;99.90;;;;;;5018580;28;20583;-90
2022/02/16 09:11:26;;;;;;;2.33;1.10;;;5.40;99.90;;;;;;5019908;28;20052;-87
2022/02/16 09:13:53;;;;;;;1.17;0.90;;;5.50;99.90;;;;;;5018988;28;20061;-88
2022/02/16 09:16:20;;;;;;;1.20;0.75;;;5.50;99.90;;;;;;5034561;28;20128;-86
2022/02/16 09:18:47;;;;;;;1.77;1.52;;;5.50;99.90;;;;;;5034044;28;20053;-86
2022/02/16 09:21:16;;;;;;;0.93;0.93;;;5.60;99.90;;;;;;5035604;28;20063;-88
2022/02/16 09:23:43;;;;;;;1.33;1.23;;;5.60;99.90;;;;;;5034117;28;20042;-86
2022/02/16 09:26:10;;;;;;;0.63;0.63;;;5.70;99.90;;;;;;5016644;28;20420;-87
2022/02/16 09:28:37;;;;;;;1.63;0.60;;;5.70;99.90;;;;;;5033968;28;20046;-86
2022/02/16 09:31:04;;;;;;;1.25;0.75;;;5.70;99.90;;;;;;5016555;28;20410;-87
2022/02/16 09:33:31;;;;;;;1.27;1.05;;;5.70;99.90;;;;;;5015977;28;20053;-86
2022/02/16 09:35:57;;;;;;;0.60;0.60;;;5.70;99.90;;;;;;5016334;28;20072;-85
2022/02/16 09:38:24;;;;;;;34.22;10.68;;;5.70;99.90;;;;;;5033621;28;20478;-86
2022/02/16 09:40:53;;;;;;;1.63;1.10;;;5.80;99.90;;;;;;5033202;28;20148;-86
2022/02/16 09:43:23;;;;;;;1.75;0.85;;;5.80;99.90;;;;;;5033013;28;20045;-86
2022/02/16 09:45:55;;;;;;;1.30;0.70;;;5.80;99.90;;;;;;5016689;28;20042;-88
2022/02/16 09:48:23;;;;;;;3.63;0.90;;;5.80;99.90;;;;;;5017714;28;20173;-86
2022/02/16 09:50:52;;;;;;;1.58;0.68;;;5.80;99.90;;;;;;5015680;28;20041;-86
2022/02/16 09:53:29;;;;;;;1.30;1.20;;;5.80;99.90;;;;;;5033018;28;20053;-88
2022/02/16 09:55:58;;;;;;;1.15;0.90;;;5.80;99.90;;;;;;5017331;28;20049;-86
2022/02/16 09:58:25;;;;;;;4.50;1.48;;;5.80;99.90;;;;;;5015325;28;20071;-86
2022/02/16 10:01:11;;;;;;;2.05;1.02;;;5.80;99.90;;;;;;5034047;28;20495;-88
2022/02/16 10:03:39;;;;;;;0.82;0.80;;;5.70;99.90;;;;;;5017977;28;20063;-93
2022/02/16 10:06:36;;;;;;;0.93;0.93;;;5.60;99.90;;;;;;5004622;28;20109;-90
2022/02/16 10:09:04;;;;;;;1.23;0.80;;;5.60;99.90;;;;;;5017055;28;20085;-92
2022/02/16 10:11:32;;;;;;;0.77;0.55;;;5.60;99.90;;;;;;5018377;28;20128;-88
2022/02/16 10:14:21;;;;;;;1.33;0.80;;;5.70;99.90;;;;;;5017322;28;20060;-89
2022/02/16 10:16:47;;;;;;;0.50;0.50;;;5.70;99.90;;;;;;5017250;28;20057;-89
2022/02/16 10:19:14;;;;;;;0.95;0.70;;;5.70;99.90;;;;;;5018258;28;20413;-88
2022/02/16 10:22:05;;;;;;;0.40;0.40;;;5.80;99.90;;;;;;5018053;28;20421;-89
2022/02/16 10:24:34;;;;;;;0.52;0.52;;;5.90;99.90;;;;;;5017369;28;20494;-90
2022/02/16 10:27:02;;;;;;;0.32;0.32;;;6.00;99.90;;;;;;5021723;28;20136;-89
2022/02/16 10:29:35;;;;;;;0.43;0.43;;;6.10;99.90;;;;;;5016234;28;20049;-87
2022/02/16 10:32:03;;;;;;;0.63;0.57;;;6.20;99.90;;;;;;5016628;28;20053;-89
2022/02/16 10:34:54;;;;;;;0.43;0.30;;;6.30;99.90;;;;;;5016698;28;20408;-89
2022/02/16 10:37:29;;;;;;;0.52;0.30;;;6.50;99.90;;;;;;5017189;28;20084;-90
2022/02/16 10:40:15;;;;;;;0.52;0.40;;;6.60;99.90;;;;;;5016904;28;20052;-88
2022/02/16 10:42:57;;;;;;;0.50;0.30;;;6.60;99.90;;;;;;5017896;28;20057;-88
2022/02/16 10:45:26;;;;;;;0.28;0.28;;;6.60;99.90;;;;;;5016372;28;20560;-93
2022/02/16 10:47:56;;;;;;;0.40;0.40;;;6.80;99.90;;;;;;5016565;28;20053;-89
2022/02/16 10:50:28;;;;;;;0.75;0.40;;;7.00;99.90;;;;;;5016457;28;20045;-88
2022/02/16 10:52:58;;;;;;;1.10;0.40;;;7.20;99.90;;;;;;5034150;28;20042;-89
2022/02/16 10:55:42;;;;;;;0.38;0.30;;;7.20;99.90;;;;;;5016358;28;20053;-92
2022/02/16 10:58:11;;;;;;;;;;;7.30;99.90;;;;;;5015632;28;20053;-87
2022/02/16 11:00:39;;;;;;;0.32;0.30;;;7.40;99.90;;;;;;5034163;28;19921;-88
2022/02/16 11:03:08;;;;;;;0.30;0.20;;;7.40;99.90;;;;;;5036681;28;20053;-88
2022/02/16 11:05:45;;;;;;;0.30;0.30;;;7.50;99.90;;;;;;5020295;28;20489;-91
2022/02/16 11:08:15;;;;;;;0.98;0.55;;;7.50;99.90;;;;;;5019315;28;20060;-87
2022/02/16 11:10:45;;;;;;;1.67;0.47;;;7.40;99.90;;;;;;5037058;28;20041;-90
2022/02/16 11:13:16;;;;;;;0.95;0.50;;;7.40;99.90;;;;;;5019324;28;20081;-88
2022/02/16 11:15:44;;;;;;;0.57;0.40;;;7.40;99.90;;;;;;5019592;28;20383;-88
2022/02/16 11:18:17;;;;;;;0.30;0.28;;;7.30;99.90;;;;;;5019312;28;20136;-90
2022/02/16 11:20:44;;;;;;;0.52;0.40;;;7.40;99.90;;;;;;5019191;28;20501;-86
2022/02/16 11:23:14;;;;;;;0.30;0.30;;;7.40;99.90;;;;;;5018887;28;20056;-88
2022/02/16 11:25:42;;;;;;;0.93;0.60;;;7.60;99.90;;;;;;5018723;28;20136;-92
2022/02/16 11:28:11;;;;;;;0.45;0.40;;;7.70;99.90;;;;;;5018549;28;20128;-89
2022/02/16 11:30:41;;;;;;;0.30;0.28;;;7.70;99.90;;;;;;5019169;28;20049;-88
2022/02/16 11:33:16;;;;;;;0.75;0.50;;;7.60;99.90;;;;;;5018674;28;20063;-89
2022/02/16 11:35:58;;;;;;;0.13;0.13;;;7.60;99.90;;;;;;5019221;28;20053;-87
2022/02/16 11:38:44;;;;;;;1.17;0.40;;;7.60;99.90;;;;;;5019263;28;20144;-87
2022/02/16 11:41:28;;;;;;;0.57;0.50;;;7.60;99.90;;;;;;5036655;28;20107;-90
2022/02/16 11:44:05;;;;;;;0.20;0.20;;;7.60;99.90;;;;;;5018745;28;20576;-90
2022/02/16 11:46:40;;;;;;;0.28;0.28;;;7.70;99.90;;;;;;5018274;28;20052;-88
2022/02/16 11:49:27;;;;;;;0.20;0.20;;;7.80;99.90;;;;;;5018189;28;20061;-89
2022/02/16 11:51:58;;;;;;;0.28;0.28;;;7.90;99.90;;;;;;5019024;28;20081;-88
2022/02/16 11:54:44;;;;;;;0.30;0.30;;;8.10;99.90;;;;;;5035440;28;20041;-87
2022/02/16 11:57:36;;;;;;;0.10;0.10;;;8.40;99.90;;;;;;5017852;28;20057;-88
2022/02/16 12:00:18;;;;;;;0.10;0.10;;;8.60;99.90;;;;;;5018832;28;20049;-88
2022/02/16 12:03:06;;;;;;;0.30;0.30;;;9.10;99.90;;;;;;5015064;28;20486;-93
2022/02/16 12:06:00;;;;;;;0.30;0.30;;;10.30;99.90;;;;;;5013715;28;20072;-93
2022/02/16 12:08:32;;;;;;;0.40;0.32;;;10.30;99.90;;;;;;5014775;28;20076;-90
2022/02/16 12:11:15;;;;;;;0.20;0.10;;;9.70;99.90;;;;;;5016485;28;20056;-87
2022/02/16 12:14:10;;;;;;;0.13;0.13;;;9.20;99.90;;;;;;5010383;28;20054;-89
2022/02/16 12:16:42;;;;;;;0.50;0.30;;;9.00;99.90;;;;;;5014420;28;20092;-88
2022/02/16 12:19:13;;;;;;;0.15;0.10;;;9.70;99.90;;;;;;5011887;28;20061;-90
2022/02/16 12:21:43;;;;;;;0.20;0.20;;;9.90;99.90;;;;;;5016951;28;20132;-91
2022/02/16 12:24:14;;;;;;;0.10;0.10;;;9.90;99.90;;;;;;5010291;28;20140;-89
2022/02/16 12:26:47;;;;;;;0.30;0.30;;;9.90;99.90;;;;;;5014233;28;20144;-90
2022/02/16 12:29:20;;;;;;;1.55;0.55;;;10.10;99.90;;;;;;5022142;28;20057;-90
2022/02/16 12:31:49;;;;;;;0.40;0.40;;;10.20;99.90;;;;;;5016279;28;20053;-90
2022/02/16 12:34:28;;;;;;;0.20;0.20;;;10.30;99.90;;;;;;5013502;28;20108;-88
2022/02/16 12:37:01;;;;;;;0.17;0.17;;;10.50;99.90;;;;;;5012891;28;20140;-88
2022/02/16 12:39:30;;;;;;;0.20;0.20;;;10.30;99.90;;;;;;5025570;28;20041;-91
2022/02/16 12:42:09;;;;;;;0.63;0.20;;;10.00;99.90;;;;;;5015998;28;20137;-91
2022/02/16 12:44:41;;;;;;;0.17;0.17;;;9.80;99.90;;;;;;5014257;28;20061;-94
2022/02/16 12:47:10;;;;;;;0.20;0.10;;;9.80;99.90;;;;;;5014353;28;20409;-90
2022/02/16 12:49:39;;;;;;;0.10;0.10;;;9.60;99.90;;;;;;5015273;28;20045;-90
2022/02/16 12:52:06;;;;;;;0.10;0.10;;;9.40;99.90;;;;;;5018774;28;20057;-90
2022/02/16 12:54:37;;;;;;;0.40;0.20;;;9.40;99.90;;;;;;5020055;28;20132;-89
2022/02/16 12:57:09;;;;;;;0.35;0.30;;;9.50;99.90;;;;;;5017169;28;20049;-89
2022/02/16 13:00:46;;;;;;;0.10;0.10;;;9.60;99.90;;;;;;5017065;28;20045;-91
2022/02/16 13:02:33;;;;;;;0.10;0.10;;;9.40;99.90;;;;;;5033861;28;20045;-92
2022/02/16 13:05:05;;;;;;;0.65;0.20;;;9.20;99.90;;;;;;5034619;28;20056;-90
2022/02/16 13:07:34;;;;;;;0.10;0.10;;;9.20;99.90;;;;;;5017244;28;20117;-90